createdAt,value
2023-04-02T00:00:10.452Z,100249.22
2023-04-02T00:02:58.264Z,100246.50
2023-04-02T00:05:30.341Z,100252.22
2023-04-02T00:08:03.794Z,100255.69
2023-04-02T00:10:35.169Z,100259.28
2023-04-02T00:13:05.013Z,100249.22
2023-04-02T00:15:33.394Z,100243.00
2023-04-02T00:18:02.173Z,100251.44
2023-04-02T00:20:35.377Z,100244.44
2023-04-02T00:23:03.351Z,100246.56
2023-04-02T00:25:36.556Z,100244.09
2023-04-02T00:28:04.263Z,100242.91
2023-04-02T00:30:31.936Z,100248.78
2023-04-02T00:32:59.339Z,100247.50
2023-04-02T00:35:29.073Z,100250.97
2023-04-02T00:37:56.877Z,100254.66
2023-04-02T00:40:26.757Z,100237.88
2023-04-02T00:42:57.877Z,100241.56
2023-04-02T00:45:31.924Z,100238.81
2023-04-02T00:48:13.915Z,100240.91
2023-04-02T00:50:44.483Z,100240.06
2023-04-02T00:53:24.351Z,100242.88
2023-04-02T00:55:52.200Z,100238.75
2023-04-02T00:58:27.722Z,100241.13
2023-04-02T01:00:55.030Z,100242.66
2023-04-02T01:03:28.919Z,100242.19
2023-04-02T01:06:03.616Z,100248.34
2023-04-02T01:08:44.031Z,100258.34
2023-04-02T01:11:36.194Z,100256.31
2023-04-02T01:14:36.057Z,100254.78
2023-04-02T01:17:19.926Z,100257.50
2023-04-02T01:20:01.936Z,100259.13
2023-04-02T01:22:47.884Z,100264.13
2023-04-02T01:25:24.976Z,100255.63
2023-04-02T01:28:04.869Z,100260.91
2023-04-02T01:30:36.576Z,100264.28
2023-04-02T01:33:05.560Z,100263.34
2023-04-02T01:35:38.663Z,100262.31
2023-04-02T01:38:30.376Z,100255.06
2023-04-02T01:41:12.789Z,100253.53
2023-04-02T01:44:21.448Z,100251.19
2023-04-02T01:46:49.376Z,100257.47
2023-04-02T01:49:22.483Z,100266.50
2023-04-02T01:51:56.827Z,100265.66
2023-04-02T01:54:28.777Z,100268.91
2023-04-02T01:56:57.461Z,100267.38
2023-04-02T01:59:26.311Z,100265.72
2023-04-02T02:02:04.358Z,100271.72
2023-04-02T02:04:34.555Z,100275.97
2023-04-02T02:07:02.843Z,100270.28
2023-04-02T02:09:35.739Z,100277.50
2023-04-02T02:12:04.753Z,100276.56
2023-04-02T02:14:32.471Z,100272.50
2023-04-02T02:17:02.420Z,100277.13
2023-04-02T02:19:29.567Z,100289.53
2023-04-02T02:22:27.723Z,100295.84
2023-04-02T02:24:57.592Z,100302.66
2023-04-02T02:27:25.148Z,100309.06
2023-04-02T02:30:24.782Z,100304.06
2023-04-02T02:33:17.018Z,100309.50
2023-04-02T02:36:01.106Z,100313.97
2023-04-02T02:38:54.095Z,100306.44
2023-04-02T02:41:41.464Z,100312.22
2023-04-02T02:44:09.419Z,100308.25
2023-04-02T02:46:51.654Z,100309.03
2023-04-02T02:49:32.888Z,100322.47
2023-04-02T02:52:14.869Z,100327.31
2023-04-02T02:54:56.951Z,100347.31
2023-04-02T02:57:33.891Z,100341.50
2023-04-02T03:00:02.313Z,100345.63
2023-04-02T03:02:35.311Z,100346.66
2023-04-02T03:05:04.928Z,100344.50
2023-04-02T03:07:32.505Z,100344.50
2023-04-02T03:10:04.094Z,100344.78
2023-04-02T03:12:39.730Z,100349.50
2023-04-02T03:15:23.289Z,100347.72
2023-04-02T03:18:01.930Z,100352.72
2023-04-02T03:20:55.952Z,100357.69
2023-04-02T03:23:43.107Z,100358.63
2023-04-02T03:26:27.998Z,100360.63
2023-04-02T03:29:02.693Z,100363.19
2023-04-02T03:31:37.929Z,100363.28
2023-04-02T03:34:13.588Z,100368.81
2023-04-02T03:36:51.205Z,100367.59
2023-04-02T03:39:25.824Z,100380.63
2023-04-02T03:42:16.992Z,100379.06
2023-04-02T03:45:03.422Z,100385.59
2023-04-02T03:47:34.100Z,100385.69
2023-04-02T03:50:18.428Z,100381.44
2023-04-02T03:52:45.999Z,100392.34
2023-04-02T03:55:21.632Z,100403.06
2023-04-02T03:58:11.250Z,100396.69
2023-04-02T04:00:42.404Z,100397.53
2023-04-02T04:03:50.564Z,100401.16
2023-04-02T04:06:29.582Z,100391.56
2023-04-02T04:09:08.996Z,100402.78
2023-04-02T04:11:43.920Z,100403.81
2023-04-02T04:14:19.811Z,100402.19
2023-04-02T04:17:04.443Z,100406.69
2023-04-02T04:19:54.924Z,100411.03
2023-04-02T04:22:30.188Z,100421.25
2023-04-02T04:25:07.593Z,100417.72
2023-04-02T04:28:17.341Z,100420.28
2023-04-02T04:31:11.093Z,100424.63
2023-04-02T04:33:46.426Z,100425.06
2023-04-02T04:36:31.408Z,100431.56
2023-04-02T04:39:14.635Z,100438.22
2023-04-02T04:41:47.637Z,100441.34
2023-04-02T04:44:23.091Z,100445.16
2023-04-02T04:47:03.497Z,100453.34
2023-04-02T04:49:45.004Z,100456.72
2023-04-02T04:52:17.930Z,100455.63
2023-04-02T04:54:47.196Z,100460.00
2023-04-02T04:57:29.743Z,100464.03
2023-04-02T05:00:12.963Z,100473.03
2023-04-02T05:02:52.633Z,100471.94
2023-04-02T05:05:29.461Z,100477.28
2023-04-02T05:08:11.117Z,100495.34
2023-04-02T05:10:44.837Z,100493.72
2023-04-02T05:13:28.744Z,100500.16
2023-04-02T05:16:24.067Z,100504.41
2023-04-02T05:19:06.369Z,100499.53
2023-04-02T05:21:49.707Z,100491.91
2023-04-02T05:24:46.558Z,100494.09
2023-04-02T05:27:39.599Z,100490.22
2023-04-02T05:30:52.741Z,100491.84
2023-04-02T05:33:28.240Z,100487.44
2023-04-02T05:36:05.270Z,100494.38
2023-04-02T05:38:46.358Z,100505.41
2023-04-02T05:41:36.781Z,100511.63
2023-04-02T05:44:31.259Z,100525.09
2023-04-02T05:47:04.511Z,100531.78
2023-04-02T05:49:36.827Z,100530.38
2023-04-02T05:52:06.865Z,100536.19
2023-04-02T05:55:03.685Z,100542.09
2023-04-02T05:57:46.801Z,100536.22
2023-04-02T06:00:41.890Z,100542.66
2023-04-02T06:03:27.305Z,100521.56
2023-04-02T06:06:01.140Z,100525.59
2023-04-02T06:08:41.594Z,100526.59
2023-04-02T06:11:13.828Z,100536.59
2023-04-02T06:13:42.296Z,100552.38
2023-04-02T06:16:14.506Z,100558.59
2023-04-02T06:18:43.662Z,100544.28
2023-04-02T06:21:15.543Z,100552.31
2023-04-02T06:23:58.843Z,100559.00
2023-04-02T06:26:33.042Z,100570.34
2023-04-02T06:29:41.225Z,100577.91
2023-04-02T06:32:13.903Z,100572.03
2023-04-02T06:34:45.285Z,100585.34
2023-04-02T06:37:37.725Z,100584.41
2023-04-02T06:40:41.612Z,100581.75
2023-04-02T06:43:50.794Z,100579.19
2023-04-02T06:46:53.176Z,100591.09
2023-04-02T06:49:30.234Z,100592.91
2023-04-02T06:52:04.583Z,100588.56
2023-04-02T06:54:32.121Z,100600.63
2023-04-02T06:57:07.092Z,100611.09
2023-04-02T06:59:37.976Z,100620.25
2023-04-02T07:02:23.501Z,100616.16
2023-04-02T07:04:51.049Z,100615.59
2023-04-02T07:07:19.825Z,100633.44
2023-04-02T07:09:48.516Z,100630.38
2023-04-02T07:12:23.653Z,100638.13
2023-04-02T07:14:51.321Z,100639.69
2023-04-02T07:17:20.216Z,100641.41
2023-04-02T07:19:49.670Z,100643.63
2023-04-02T07:22:19.841Z,100649.50
2023-04-02T07:24:51.389Z,100649.50
2023-04-02T07:27:18.604Z,100659.44
2023-04-02T07:29:45.795Z,100677.91
2023-04-02T07:32:13.813Z,100686.66
2023-04-02T07:34:41.905Z,100697.78
2023-04-02T07:37:13.950Z,100700.34
2023-04-02T07:39:41.744Z,100709.16
2023-04-02T07:42:09.327Z,100702.59
2023-04-02T07:44:36.426Z,100705.59
2023-04-02T07:47:03.719Z,100711.03
2023-04-02T07:49:30.970Z,100708.69
2023-04-02T07:51:58.073Z,100721.13
2023-04-02T07:54:27.125Z,100727.91
2023-04-02T07:56:54.400Z,100728.13
2023-04-02T07:59:21.604Z,100732.69
2023-04-02T08:01:48.761Z,100735.63
2023-04-02T08:04:18.909Z,100736.75
2023-04-02T08:06:47.365Z,100745.00
2023-04-02T08:09:15.762Z,100747.13
2023-04-02T08:11:43.681Z,100743.97
2023-04-02T08:14:10.817Z,100749.88
2023-04-02T08:16:49.406Z,100751.28
2023-04-02T08:19:17.747Z,100745.00
2023-04-02T08:21:45.166Z,100751.59
2023-04-02T08:24:12.276Z,100755.44
2023-04-02T08:26:39.413Z,100761.50
2023-04-02T08:29:06.570Z,100762.47
2023-04-02T08:31:33.674Z,100769.44
2023-04-02T08:34:01.567Z,100764.50
2023-04-02T08:36:38.102Z,100770.97
2023-04-02T08:39:10.909Z,100766.97
2023-04-02T08:41:45.637Z,100769.63
2023-04-02T08:44:27.957Z,100782.19
2023-04-02T08:47:07.334Z,100793.41
2023-04-02T08:49:56.001Z,100794.78
2023-04-02T08:52:28.284Z,100796.09
2023-04-02T08:54:57.897Z,100796.72
2023-04-02T08:57:42.284Z,100801.28
2023-04-02T09:00:15.740Z,100808.31
2023-04-02T09:02:49.597Z,100804.38
2023-04-02T09:05:24.141Z,100794.44
2023-04-02T09:07:52.619Z,100803.19
2023-04-02T09:10:21.479Z,100808.78
2023-04-02T09:12:53.386Z,100814.50
2023-04-02T09:15:31.303Z,100818.13
2023-04-02T09:18:14.949Z,100821.28
2023-04-02T09:20:42.744Z,100828.31
2023-04-02T09:23:19.736Z,100824.81
2023-04-02T09:26:02.920Z,100818.56
2023-04-02T09:28:31.975Z,100822.06
2023-04-02T09:31:11.047Z,100814.47
2023-04-02T09:33:48.314Z,100809.88
2023-04-02T09:36:28.168Z,100797.56
2023-04-02T09:39:22.708Z,100796.28
2023-04-02T09:42:02.734Z,100799.94
2023-04-02T09:44:32.558Z,100814.50
2023-04-02T09:47:05.951Z,100816.94
2023-04-02T09:49:36.122Z,100802.69
2023-04-02T09:52:18.742Z,100800.03
2023-04-02T09:54:46.740Z,100796.25
2023-04-02T09:57:27.930Z,100807.00
2023-04-02T10:02:45.322Z,100813.78
2023-04-02T10:05:38.913Z,100812.94
2023-04-02T10:08:28.107Z,100821.50
2023-04-02T10:10:59.498Z,100822.97
2023-04-02T10:13:48.143Z,100818.63
2023-04-02T10:16:19.524Z,100820.50
2023-04-02T10:18:51.872Z,100819.47
2023-04-02T10:21:26.878Z,100812.16
2023-04-02T10:23:55.450Z,100821.91
2023-04-02T10:26:37.495Z,100810.78
2023-04-02T10:29:31.018Z,100820.03
2023-04-02T10:32:20.458Z,100817.50
2023-04-02T10:34:52.946Z,100826.91
2023-04-02T10:37:41.429Z,100818.94
2023-04-02T10:40:20.211Z,100832.72
2023-04-02T10:43:34.395Z,100826.03
2023-04-02T10:46:25.927Z,100819.94
2023-04-02T10:48:58.704Z,100820.66
2023-04-02T10:51:31.905Z,100817.69
2023-04-02T10:54:27.900Z,100814.88
2023-04-02T10:57:10.572Z,100817.00
2023-04-02T10:59:43.245Z,100816.16
2023-04-02T11:02:39.405Z,100821.66
2023-04-02T11:05:40.739Z,100811.50
2023-04-02T11:08:33.246Z,100815.88
2023-04-02T11:11:07.827Z,100809.06
2023-04-02T11:13:40.857Z,100803.34
2023-04-02T11:16:08.075Z,100798.53
2023-04-02T11:18:38.710Z,100796.84
2023-04-02T11:21:27.221Z,100790.34
2023-04-02T11:24:00.774Z,100793.78
2023-04-02T11:26:41.043Z,100785.09
2023-04-02T11:29:14.293Z,100787.13
2023-04-02T11:31:42.842Z,100794.66
2023-04-02T11:34:31.953Z,100790.41
2023-04-02T11:37:00.583Z,100787.56
2023-04-02T11:39:46.491Z,100784.09
2023-04-02T11:42:19.511Z,100797.31
2023-04-02T11:44:46.728Z,100798.75
2023-04-02T11:47:21.315Z,100794.50
2023-04-02T11:49:58.834Z,100793.56
2023-04-02T11:52:47.498Z,100784.94
2023-04-02T11:55:27.092Z,100786.69
2023-04-02T11:58:23.883Z,100772.63
2023-04-02T12:01:18.330Z,100776.38
2023-04-02T12:03:53.821Z,100771.25
2023-04-02T12:06:31.233Z,100770.88
2023-04-02T12:09:27.182Z,100765.72
2023-04-02T12:12:00.981Z,100757.69
2023-04-02T12:14:48.468Z,100765.84
2023-04-02T12:17:24.909Z,100765.16
2023-04-02T12:19:55.312Z,100764.00
2023-04-02T12:22:31.074Z,100762.06
2023-04-02T12:25:01.035Z,100766.84
2023-04-02T12:27:29.591Z,100778.97
2023-04-02T12:30:12.995Z,100784.03
2023-04-02T12:32:40.765Z,100790.09
2023-04-02T12:35:33.219Z,100793.75
2023-04-02T12:38:01.027Z,100802.47
2023-04-02T12:40:28.538Z,100797.97
2023-04-02T12:42:55.979Z,100794.03
2023-04-02T12:45:28.589Z,100798.97
2023-04-02T12:47:57.473Z,100799.66
2023-04-02T12:50:24.818Z,100807.03
2023-04-02T12:52:55.552Z,100796.31
2023-04-02T12:55:24.929Z,100802.94
2023-04-02T12:57:59.619Z,100810.69
2023-04-02T13:00:29.925Z,100805.72
2023-04-02T13:03:06.440Z,100811.97
2023-04-02T13:05:45.938Z,100805.13
2023-04-02T13:08:19.373Z,100801.88
2023-04-02T13:10:51.786Z,100804.53
2023-04-02T13:13:24.715Z,100800.94
2023-04-02T13:16:03.897Z,100803.00
2023-04-02T13:18:32.727Z,100801.22
2023-04-02T13:21:21.169Z,100804.13
2023-04-02T13:23:48.460Z,100811.28
2023-04-02T13:26:22.253Z,100813.56
2023-04-02T13:29:02.686Z,100807.88
2023-04-02T13:31:33.375Z,100806.63
2023-04-02T13:34:00.704Z,100818.56
2023-04-02T13:36:29.465Z,100826.84
2023-04-02T13:38:57.493Z,100824.31
2023-04-02T13:41:30.562Z,100822.72
2023-04-02T13:44:00.421Z,100826.00
2023-04-02T13:46:35.227Z,100824.44
2023-04-02T13:49:02.566Z,100825.84
2023-04-02T13:51:39.212Z,100823.56
2023-04-02T13:54:20.418Z,100826.03
2023-04-02T13:56:47.933Z,100824.00
2023-04-02T13:59:16.046Z,100828.84
2023-04-02T14:01:44.725Z,100826.00
2023-04-02T14:04:17.716Z,100825.88
2023-04-02T14:07:03.224Z,100826.66
2023-04-02T14:09:50.353Z,100817.31
2023-04-02T14:12:24.695Z,100801.28
2023-04-02T14:15:13.993Z,100805.97
2023-04-02T14:18:26.778Z,100831.13
2023-04-02T14:21:09.270Z,100836.97
2023-04-02T14:23:53.903Z,100842.81
2023-04-02T14:26:33.017Z,100847.16
2023-04-02T14:29:09.911Z,100850.09
2023-04-02T14:31:41.930Z,100854.44
2023-04-02T14:34:50.267Z,100862.72
2023-04-02T14:37:23.827Z,100860.38
2023-04-02T14:40:14.286Z,100869.72
2023-04-02T14:42:53.158Z,100871.16
2023-04-02T14:45:38.738Z,100866.38
2023-04-02T14:48:16.762Z,100879.59
2023-04-02T14:50:44.096Z,100879.94
2023-04-02T14:53:43.718Z,100871.66
2023-04-02T14:56:13.057Z,100864.97
2023-04-02T14:58:48.564Z,100857.13
2023-04-02T15:01:27.571Z,100840.75
2023-04-02T15:04:02.182Z,100837.06
2023-04-02T15:06:37.898Z,100843.09
2023-04-02T15:09:17.337Z,100846.91
2023-04-02T15:12:02.662Z,100838.50
2023-04-02T15:14:32.802Z,100836.81
2023-04-02T15:16:59.943Z,100838.88
2023-04-02T15:19:27.052Z,100830.94
2023-04-02T15:22:27.457Z,100814.34
2023-04-02T15:24:57.284Z,100809.03
2023-04-02T15:27:30.321Z,100806.31
2023-04-02T15:30:20.408Z,100799.88
2023-04-02T15:32:48.963Z,100791.72
2023-04-02T15:35:38.168Z,100799.56
2023-04-02T15:38:14.489Z,100793.44
2023-04-02T15:41:08.764Z,100797.41
2023-04-02T15:43:35.851Z,100793.75
2023-04-02T15:46:42.038Z,100793.00
2023-04-02T15:49:46.275Z,100796.56
2023-04-02T15:52:38.336Z,100800.66
2023-04-02T15:55:41.540Z,100803.59
2023-04-02T15:58:27.488Z,100796.22
2023-04-02T16:01:08.328Z,100802.72
2023-04-02T16:03:49.498Z,100797.22
2023-04-02T16:06:19.832Z,100797.50
2023-04-02T16:08:57.283Z,100795.53
2023-04-02T16:11:26.076Z,100792.59
2023-04-02T16:14:13.402Z,100792.88
2023-04-02T16:16:42.367Z,100791.22
2023-04-02T16:19:28.764Z,100786.72
2023-04-02T16:22:18.151Z,100792.72
2023-04-02T16:24:50.265Z,100794.47
2023-04-02T16:27:37.562Z,100794.50
2023-04-02T16:30:43.533Z,100794.72
2023-04-02T16:33:32.792Z,100801.84
2023-04-02T16:36:02.605Z,100794.25
2023-04-02T16:38:57.464Z,100788.50
2023-04-02T16:41:27.431Z,100797.63
2023-04-02T16:44:35.548Z,100788.47
2023-04-02T16:47:17.673Z,100786.44
2023-04-02T16:50:23.135Z,100788.47
2023-04-02T16:52:59.811Z,100787.56
2023-04-02T16:56:08.176Z,100793.09
2023-04-02T16:58:50.104Z,100794.03
2023-04-02T17:01:42.785Z,100801.63
2023-04-02T17:04:21.924Z,100806.75
2023-04-02T17:07:15.698Z,100811.13
2023-04-02T17:09:51.050Z,100809.97
2023-04-02T17:12:28.040Z,100798.66
2023-04-02T17:15:00.969Z,100808.75
2023-04-02T17:17:28.217Z,100805.94
2023-04-02T17:19:59.546Z,100809.19
2023-04-02T17:22:27.923Z,100809.88
2023-04-02T17:25:01.527Z,100812.75
2023-04-02T17:27:34.873Z,100807.25
2023-04-02T17:30:18.326Z,100807.31
2023-04-02T17:32:46.067Z,100816.94
2023-04-02T17:35:42.167Z,100814.84
2023-04-02T17:38:25.605Z,100820.69
2023-04-02T17:41:13.281Z,100824.72
2023-04-02T17:43:46.360Z,100819.00
2023-04-02T17:46:34.614Z,100822.44
2023-04-02T17:49:24.662Z,100835.34
2023-04-02T17:52:23.433Z,100841.84
2023-04-02T17:55:02.543Z,100836.22
2023-04-02T17:57:41.745Z,100835.72
2023-04-02T18:00:21.480Z,100846.72
2023-04-02T18:03:06.867Z,100840.06
2023-04-02T18:05:48.954Z,100854.72
2023-04-02T18:08:34.024Z,100853.22
2023-04-02T18:11:13.743Z,100855.38
2023-04-02T18:13:55.907Z,100864.41
2023-04-02T18:16:46.473Z,100859.97
2023-04-02T18:19:18.321Z,100873.34
2023-04-02T18:21:57.934Z,100871.53
2023-04-02T18:24:55.692Z,100879.00
2023-04-02T18:27:45.671Z,100876.50
2023-04-02T18:30:23.555Z,100887.94
2023-04-02T18:33:15.632Z,100887.38
2023-04-02T18:35:54.262Z,100898.44
2023-04-02T18:38:40.321Z,100904.75
2023-04-02T18:41:32.113Z,100905.13
2023-04-02T18:44:02.178Z,100915.38
2023-04-02T18:46:48.054Z,100914.91
2023-04-02T18:49:34.412Z,100916.84
2023-04-02T18:52:09.487Z,100914.81
2023-04-02T18:54:44.383Z,100920.09
2023-04-02T18:57:15.581Z,100917.53
2023-04-02T18:59:53.468Z,100921.09
2023-04-02T19:02:20.705Z,100920.56
2023-04-02T19:05:23.621Z,100924.31
2023-04-02T19:07:55.134Z,100930.59
2023-04-02T19:10:35.277Z,100932.59
2023-04-02T19:13:02.475Z,100938.91
2023-04-02T19:15:43.203Z,100944.38
2023-04-02T19:18:16.395Z,100951.38
2023-04-02T19:21:28.929Z,100946.19
2023-04-02T19:24:15.026Z,100950.75
2023-04-02T19:27:05.082Z,100962.44
2023-04-02T19:29:59.283Z,100965.38
2023-04-02T19:32:35.690Z,100963.53
2023-04-02T19:35:29.652Z,100967.88
2023-04-02T19:38:02.887Z,100964.63
2023-04-02T19:40:42.193Z,100974.25
2023-04-02T19:43:10.692Z,100976.31
2023-04-02T19:45:41.736Z,100966.00
2023-04-02T19:48:21.106Z,100977.75
2023-04-02T19:50:49.328Z,100977.69
2023-04-02T19:53:17.354Z,100982.94
2023-04-02T19:55:45.051Z,100984.78
2023-04-02T19:58:27.245Z,100987.31
2023-04-02T20:00:54.859Z,100977.63
2023-04-02T20:03:22.271Z,100992.78
2023-04-02T20:05:49.551Z,100986.88
2023-04-02T20:08:16.793Z,100996.50
2023-04-02T20:10:44.385Z,100991.16
2023-04-02T20:13:12.006Z,100986.72
2023-04-02T20:15:40.011Z,100999.69
2023-04-02T20:18:07.359Z,101002.41
2023-04-02T20:20:34.868Z,101001.63
2023-04-02T20:23:02.313Z,101003.13
2023-04-02T20:25:29.463Z,101011.50
2023-04-02T20:27:56.851Z,101011.13
2023-04-02T20:30:24.039Z,101014.03
2023-04-02T20:32:51.435Z,101018.72
2023-04-02T20:35:18.634Z,101028.59
2023-04-02T20:37:45.728Z,101029.72
2023-04-02T20:40:12.938Z,101035.06
2023-04-02T20:42:40.102Z,101046.50
2023-04-02T20:45:08.791Z,101043.13
2023-04-02T20:47:35.948Z,101042.28
2023-04-02T20:50:03.203Z,101045.06
2023-04-02T20:52:32.324Z,101045.91
2023-04-02T20:54:59.433Z,101041.63
2023-04-02T20:57:29.650Z,101042.81
2023-04-02T20:59:58.797Z,101035.25
2023-04-02T21:02:26.116Z,101048.72
2023-04-02T21:04:55.469Z,101047.06
2023-04-02T21:07:22.841Z,101043.84
2023-04-02T21:09:51.723Z,101045.81
2023-04-02T21:12:19.303Z,101037.97
2023-04-02T21:14:48.308Z,101045.81
2023-04-02T21:17:16.064Z,101048.56
2023-04-02T21:19:43.222Z,101045.94
2023-04-02T21:22:10.364Z,101048.69
2023-04-02T21:24:37.476Z,101046.81
2023-04-02T21:27:04.621Z,101044.09
2023-04-02T21:29:31.855Z,101045.13
2023-04-02T21:32:01.562Z,101056.38
2023-04-02T21:34:32.737Z,101054.69
2023-04-02T21:36:59.938Z,101050.38
2023-04-02T21:39:27.250Z,101055.28
2023-04-02T21:41:54.745Z,101054.38
2023-04-02T21:44:23.536Z,101051.78
2023-04-02T21:46:52.970Z,101043.84
2023-04-02T21:49:22.711Z,101039.56
2023-04-02T21:51:51.620Z,101045.53
2023-04-02T21:54:19.599Z,101053.50
2023-04-02T21:56:46.906Z,101058.69
2023-04-02T21:59:15.801Z,101057.72
2023-04-02T22:01:46.523Z,101053.19
2023-04-02T22:04:22.997Z,101052.53
2023-04-02T22:06:52.082Z,101055.28
2023-04-02T22:09:22.494Z,101048.44
2023-04-02T22:11:54.289Z,101049.38
2023-04-02T22:14:23.282Z,101047.88
2023-04-02T22:16:51.907Z,101045.50
2023-04-02T22:19:19.229Z,101047.22
2023-04-02T22:21:46.442Z,101047.41
2023-04-02T22:24:16.259Z,101050.16
2023-04-02T22:26:44.283Z,101047.59
2023-04-02T22:29:11.821Z,101050.34
2023-04-02T22:31:39.113Z,101060.88
2023-04-02T22:34:07.226Z,101052.22
2023-04-02T22:36:35.329Z,101048.75
2023-04-02T22:39:05.585Z,101041.88
2023-04-02T22:41:33.294Z,101043.03
2023-04-02T22:44:01.838Z,101040.66
2023-04-02T22:46:30.117Z,101047.72
2023-04-02T22:48:58.096Z,101039.97
2023-04-02T22:51:26.057Z,101041.75
2023-04-02T22:53:54.834Z,101032.31
2023-04-02T22:56:26.712Z,101031.56
2023-04-02T22:58:53.989Z,101029.00
2023-04-02T23:01:24.554Z,101027.28
2023-04-02T23:03:54.003Z,101028.19
2023-04-02T23:06:21.843Z,101029.25
2023-04-02T23:08:49.052Z,101034.66
2023-04-02T23:11:22.223Z,101034.66
2023-04-02T23:13:51.706Z,101030.16
2023-04-02T23:16:19.760Z,101031.06
2023-04-02T23:18:48.361Z,101028.16
2023-04-02T23:21:17.355Z,101034.94
2023-04-02T23:23:45.317Z,101032.69
2023-04-02T23:26:16.734Z,101031.31
2023-04-02T23:28:44.479Z,101027.88
2023-04-02T23:31:14.337Z,101034.22
2023-04-02T23:33:41.600Z,101037.78
2023-04-02T23:36:10.530Z,101038.03
2023-04-02T23:38:37.680Z,101045.91
2023-04-02T23:41:04.925Z,101041.69
2023-04-02T23:43:32.039Z,101037.31
2023-04-02T23:45:59.157Z,101045.00
2023-04-02T23:48:26.294Z,101030.28
2023-04-02T23:50:53.412Z,101032.91
2023-04-02T23:53:20.611Z,101026.63
2023-04-02T23:55:48.009Z,101027.50
2023-04-02T23:58:15.406Z,101022.19
